Time;durP1;ratioP1;P1;durP2;ratioP2;P2;SDS_P1;SDS_P2;PMS_P1;PMS_P2;Temp;Humidity;BMP_temperature;BMP_pressure;BME280_temperature;BME280_humidity;BME280_pressure;Samples;Min_cycle;Max_cycle;Signal;HPM_P1;HPM_P2
2022/04/01 00:00:39;;;;;;;;;;;;;;;13.09;61.31;100210.09;1037550;28;1741;-67
2022/04/01 00:01:29;;;;;;;;;;;;;;;13.09;60.47;100215.44;1038303;28;677;-67
2022/04/01 00:02:20;;;;;;;;;;;;;;;13.08;60.61;100227.09;1037779;28;704;-67
2022/04/01 00:03:10;;;;;;;;;;;;;;;13.07;59.72;100212.91;1038345;28;669;-67
2022/04/01 00:04:01;;;;;;;;;;;;;;;13.07;60.48;100222.78;1036829;28;1975;-67
2022/04/01 00:04:51;;;;;;;;;;;;;;;13.05;61.21;100212.19;1037671;28;724;-67
2022/04/01 00:05:41;;;;;;;;;;;;;;;13.06;60.72;100216.56;1036698;28;705;-67
2022/04/01 00:06:32;;;;;;;;;;;;;;;13.06;60.91;100221.06;1037747;28;689;-67
2022/04/01 00:07:22;;;;;;;;;;;;;;;13.05;61.10;100220.22;1037119;28;634;-67
2022/04/01 00:08:13;;;;;;;;;;;;;;;13.05;60.47;100222.06;1038150;28;677;-67
2022/04/01 00:09:03;;;;;;;;;;;;;;;13.05;60.81;100232.75;1036371;28;1713;-67
2022/04/01 00:09:53;;;;;;;;;;;;;;;13.05;60.64;100232.75;1036942;28;1775;-67
2022/04/01 00:10:44;;;;;;;;;;;;;;;13.04;60.36;100225.69;1036191;28;1524;-67
2022/04/01 00:11:34;;;;;;;;;;;;;;;13.04;60.45;100233.72;1036643;28;623;-67
2022/04/01 00:12:25;;;;;;;;;;;;;;;13.04;60.65;100228.38;1038209;28;666;-67
2022/04/01 00:13:15;;;;;;;;;;;;;;;13.04;60.66;100229.22;1038382;28;669;-67
2022/04/01 00:14:05;;;;;;;;;;;;;;;13.04;60.53;100231.06;1038171;28;641;-67
2022/04/01 00:14:56;;;;;;;;;;;;;;;13.03;60.85;100226.69;1036439;28;766;-67
2022/04/01 00:15:46;;;;;;;;;;;;;;;13.04;60.82;100236.41;1036633;28;658;-67
2022/04/01 00:16:37;;;;;;;;;;;;;;;13.02;60.05;100228.50;1037253;28;665;-68
2022/04/01 00:17:27;;;;;;;;;;;;;;;13.03;61.20;100232.03;1038390;28;688;-68
2022/04/01 00:18:18;;;;;;;;;;;;;;;13.02;60.71;100231.19;1036646;28;751;-68
2022/04/01 00:19:08;;;;;;;;;;;;;;;13.02;60.79;100231.19;1038047;28;1771;-67
2022/04/01 00:19:58;;;;;;;;;;;;;;;13.02;60.80;100231.19;1036600;28;645;-67
2022/04/01 00:20:49;;;;;;;;;;;;;;;13.01;60.24;100231.31;1037126;28;762;-68
2022/04/01 00:21:39;;;;;;;;;;;;;;;13.01;61.33;100234.81;1036621;28;630;-68
2022/04/01 00:22:30;;;;;;;;;;;;;;;13.00;60.28;100232.28;1037863;28;650;-68
2022/04/01 00:23:20;;;;;;;;;;;;;;;13.02;61.18;100224.97;1036484;28;614;-68
2022/04/01 00:24:11;;;;;;;;;;;;;;;13.02;60.48;100233.00;1037130;28;1951;-67
2022/04/01 00:25:01;;;;;;;;;;;;;;;13.01;61.11;100233.97;1038269;28;642;-68
2022/04/01 00:25:52;;;;;;;;;;;;;;;12.99;60.62;100236.78;1037032;28;1741;-67
2022/04/01 00:26:43;;;;;;;;;;;;;;;13.00;60.80;100232.28;1037581;28;1092;-67
2022/04/01 00:27:34;;;;;;;;;;;;;;;13.01;60.56;100239.31;1036992;28;1087;-68
2022/04/01 00:28:24;;;;;;;;;;;;;;;12.99;60.83;100231.44;1035377;28;1025;-68
2022/04/01 00:29:15;;;;;;;;;;;;;;;12.99;60.82;100239.47;1035598;28;1123;-68
2022/04/01 00:30:05;;;;;;;;;;;;;;;12.99;59.91;100230.59;1036033;28;1105;-68
2022/04/01 00:30:56;;;;;;;;;;;;;;;12.99;60.55;100228.75;1036473;28;1277;-68
2022/04/01 00:31:46;;;;;;;;;;;;;;;12.98;60.11;100235.09;1036103;28;1152;-68
2022/04/01 00:32:36;;;;;;;;;;;;;;;12.97;59.78;100233.38;1038522;28;1268;-68
2022/04/01 00:33:27;;;;;;;;;;;;;;;12.97;60.38;100227.19;1036293;28;1076;-68
2022/04/01 00:34:17;;;;;;;;;;;;;;;12.97;61.03;100230.72;1034948;28;1100;-68
2022/04/01 00:35:08;;;;;;;;;;;;;;;12.95;60.43;100230.00;1038851;28;1159;-68
2022/04/01 00:35:58;;;;;;;;;;;;;;;12.95;60.79;100239.84;1035565;28;986;-66
2022/04/01 00:36:49;;;;;;;;;;;;;;;12.94;60.39;100243.50;1037350;28;1160;-66
2022/04/01 00:37:40;;;;;;;;;;;;;;;12.94;60.67;100254.19;1034569;28;1120;-66
2022/04/01 00:38:30;;;;;;;;;;;;;;;12.95;61.03;100256.72;1036595;28;1147;-66
2022/04/01 00:39:21;;;;;;;;;;;;;;;12.94;60.54;100244.34;1036507;28;1147;-67
2022/04/01 00:40:12;;;;;;;;;;;;;;;12.93;61.05;100250.66;1035675;28;1112;-67
2022/04/01 00:41:03;;;;;;;;;;;;;;;12.94;61.48;100251.50;1035816;28;1179;-67
2022/04/01 00:41:53;;;;;;;;;;;;;;;12.94;60.29;100259.53;1036710;28;1454;-66
2022/04/01 00:42:45;;;;;;;;;;;;;;;12.94;60.58;100238.13;1035665;28;1209;-66
2022/04/01 00:43:36;;;;;;;;;;;;;;;12.92;61.44;100243.63;1034585;28;1412;-66
2022/04/01 00:44:26;;;;;;;;;;;;;;;12.92;60.98;100248.97;1037453;28;1212;-66
2022/04/01 00:45:17;;;;;;;;;;;;;;;12.91;61.37;100246.41;1037071;28;1104;-67
2022/04/01 00:46:08;;;;;;;;;;;;;;;12.90;60.78;100247.41;1035210;28;1132;-66
2022/04/01 00:46:59;;;;;;;;;;;;;;;12.90;60.63;100252.78;1036737;28;1084;-66
2022/04/01 00:47:49;;;;;;;;;;;;;;;12.92;60.47;100258.81;1033048;28;1254;-66
2022/04/01 00:48:40;;;;;;;;;;;;;;;12.92;60.09;100256.13;1030755;28;1156;-66
2022/04/01 00:49:31;;;;;;;;;;;;;;;12.91;60.18;100249.09;1035833;28;1116;-66
2022/04/01 00:50:22;;;;;;;;;;;;;;;12.91;60.35;100259.78;1035214;28;1187;-66
2022/04/01 00:51:15;;;;;;;;;;;;;;;12.91;60.11;100254.44;1033028;28;1139;-66
2022/04/01 00:52:05;;;;;;;;;;;;;;;12.90;60.63;100244.75;1032478;28;635;-67
2022/04/01 00:52:56;;;;;;;;;;;;;;;12.90;60.63;100255.44;1033034;28;1529;-67
2022/04/01 00:53:46;;;;;;;;;;;;;;;12.89;60.97;100257.28;1034502;28;1532;-67
2022/04/01 00:54:37;;;;;;;;;;;;;;;12.89;60.73;100267.13;1037058;28;686;-67
2022/04/01 00:55:27;;;;;;;;;;;;;;;12.89;60.52;100259.09;1036298;28;977;-67
2022/04/01 00:56:18;;;;;;;;;;;;;;;12.89;59.73;100259.94;1037622;28;700;-67
2022/04/01 00:57:08;;;;;;;;;;;;;;;12.90;59.91;100266.13;1037616;28;649;-67
2022/04/01 00:57:58;;;;;;;;;;;;;;;12.88;60.03;100258.25;1037533;28;1729;-67
2022/04/01 00:58:49;;;;;;;;;;;;;;;12.89;60.05;100267.97;1037602;28;689;-67
2022/04/01 00:59:39;;;;;;;;;;;;;;;12.87;60.65;100253.88;1038161;28;606;-67
2022/04/01 01:00:30;;;;;;;;;;;;;;;12.88;60.60;100258.25;1038180;28;1752;-67
2022/04/01 01:01:20;;;;;;;;;;;;;;;12.89;60.10;100267.13;1037872;28;681;-67
2022/04/01 01:02:11;;;;;;;;;;;;;;;12.85;60.02;100256.66;1033292;28;1725;-67
2022/04/01 01:03:01;;;;;;;;;;;;;;;12.87;60.34;100259.22;1034632;28;689;-67
2022/04/01 01:03:52;;;;;;;;;;;;;;;12.85;60.30;100261.16;1038458;28;709;-67
2022/04/01 01:04:42;;;;;;;;;;;;;;;12.85;60.73;100256.66;1037886;28;702;-66
2022/04/01 01:05:32;;;;;;;;;;;;;;;12.84;60.63;100263.00;1034318;28;673;-67
2022/04/01 01:06:23;;;;;;;;;;;;;;;12.83;60.56;100266.66;1034393;28;685;-67
2022/04/01 01:07:13;;;;;;;;;;;;;;;12.85;60.81;100262.03;1036110;28;1080;-67
2022/04/01 01:08:05;;;;;;;;;;;;;;;12.86;60.80;100262.88;1036587;28;1068;-67
2022/04/01 01:08:56;;;;;;;;;;;;;;;12.84;59.92;100265.66;1035416;28;1127;-67
2022/04/01 01:09:46;;;;;;;;;;;;;;;12.84;60.54;100264.81;1037242;28;1191;-67
2022/04/01 01:10:36;;;;;;;;;;;;;;;12.84;59.85;100264.81;1036085;28;1128;-67
2022/04/01 01:11:27;;;;;;;;;;;;;;;12.84;60.39;100259.47;1037045;28;1106;-67
2022/04/01 01:12:17;;;;;;;;;;;;;;;12.82;60.02;100267.63;1036166;28;1163;-67
2022/04/01 01:13:08;;;;;;;;;;;;;;;12.82;60.53;100262.28;1037413;28;1217;-67
2022/04/01 01:13:59;;;;;;;;;;;;;;;12.83;59.49;100266.66;1037225;28;1360;-67
2022/04/01 01:14:49;;;;;;;;;;;;;;;12.82;60.40;100262.28;1037174;28;1096;-67
2022/04/01 01:15:40;;;;;;;;;;;;;;;12.84;60.62;100259.47;1036316;28;1088;-67
2022/04/01 01:16:31;;;;;;;;;;;;;;;12.82;60.61;100259.59;1035125;28;1143;-67
2022/04/01 01:17:22;;;;;;;;;;;;;;;12.82;60.82;100267.63;1036502;28;1112;-67
2022/04/01 01:18:12;;;;;;;;;;;;;;;12.82;60.49;100264.94;1036642;28;1140;-67
2022/04/01 01:19:03;;;;;;;;;;;;;;;12.81;60.27;100263.25;1036848;28;1533;-67
2022/04/01 01:19:54;;;;;;;;;;;;;;;12.82;60.18;100261.41;1035583;28;1060;-67
2022/04/01 01:20:44;;;;;;;;;;;;;;;12.82;59.60;100264.94;1036454;28;1100;-67
2022/04/01 01:21:35;;;;;;;;;;;;;;;12.81;59.97;100268.59;1035663;28;1057;-67
2022/04/01 01:22:25;;;;;;;;;;;;;;;12.81;59.82;100265.91;1036582;28;1182;-67
2022/04/01 01:23:16;;;;;;;;;;;;;;;12.81;59.98;100271.25;1036454;28;1088;-67
2022/04/01 01:24:06;;;;;;;;;;;;;;;12.80;59.95;100269.56;1036971;28;1957;-67
2022/04/01 01:24:57;;;;;;;;;;;;;;;12.79;60.41;100269.69;1037201;28;1154;-67
2022/04/01 01:25:47;;;;;;;;;;;;;;;12.79;60.54;100267.03;1037966;28;1503;-68
2022/04/01 01:26:37;;;;;;;;;;;;;;;12.78;60.51;100268.00;1038146;28;1541;-68
2022/04/01 01:27:28;;;;;;;;;;;;;;;12.79;60.42;100270.53;1038284;28;730;-67
2022/04/01 01:28:18;;;;;;;;;;;;;;;12.78;60.50;100268.00;1038261;28;626;-67
2022/04/01 01:29:09;;;;;;;;;;;;;;;12.77;60.43;100264.47;1038296;28;721;-67
2022/04/01 01:30:00;;;;;;;;;;;;;;;12.77;59.74;100272.50;1038313;28;713;-67
2022/04/01 01:30:50;;;;;;;;;;;;;;;12.77;59.91;100267.16;1036927;28;1654;-66
2022/04/01 01:31:41;;;;;;;;;;;;;;;12.77;60.60;100271.63;1032362;28;650;-66
2022/04/01 01:32:32;;;;;;;;;;;;;;;12.76;59.57;100268.13;1032753;28;666;-67
2022/04/01 01:33:23;;;;;;;;;;;;;;;12.76;59.92;100273.47;1037175;28;706;-67
2022/04/01 01:34:13;;;;;;;;;;;;;;;12.76;59.91;100270.78;1038248;28;669;-66
2022/04/01 01:35:03;;;;;;;;;;;;;;;12.75;60.14;100261.06;1038084;28;1690;-67
2022/04/01 01:35:54;;;;;;;;;;;;;;;12.75;59.72;100261.06;1038169;28;532;-66
2022/04/01 01:36:45;;;;;;;;;;;;;;;12.76;60.10;100273.47;1038278;28;646;-66
2022/04/01 01:37:35;;;;;;;;;;;;;;;12.75;59.87;100278.94;1037111;28;622;-67
2022/04/01 01:38:26;;;;;;;;;;;;;;;12.75;59.62;100270.91;1038174;28;728;-66
2022/04/01 01:39:16;;;;;;;;;;;;;;;12.74;60.38;100271.88;1038360;28;715;-66
2022/04/01 01:40:06;;;;;;;;;;;;;;;12.73;60.11;100271.03;1038246;28;638;-67
2022/04/01 01:40:57;;;;;;;;;;;;;;;12.74;60.24;100275.41;1038250;28;688;-66
2022/04/01 01:41:47;;;;;;;;;;;;;;;12.72;59.97;100272.00;1034318;28;1765;-66
2022/04/01 01:42:38;;;;;;;;;;;;;;;12.73;59.68;100259.50;1033358;28;641;-66
2022/04/01 01:43:29;;;;;;;;;;;;;;;12.72;60.17;100280.03;1036548;28;626;-67
2022/04/01 01:44:19;;;;;;;;;;;;;;;12.71;60.23;100270.34;1037021;28;1894;-66
2022/04/01 01:45:10;;;;;;;;;;;;;;;12.71;59.83;100277.53;1038283;28;654;-66
2022/04/01 01:46:00;;;;;;;;;;;;;;;12.72;60.42;100279.22;1038172;28;1534;-67
2022/04/01 01:46:51;;;;;;;;;;;;;;;12.71;60.28;100273.03;1038273;28;656;-67
2022/04/01 01:47:41;;;;;;;;;;;;;;;12.71;60.13;100278.38;1034561;28;626;-67
2022/04/01 01:48:31;;;;;;;;;;;;;;;12.71;60.56;100281.03;1032784;28;622;-67
2022/04/01 01:49:22;;;;;;;;;;;;;;;12.70;60.35;100279.34;1037144;28;701;-67
2022/04/01 01:54:50;;;;;;;;;;;;;;;12.69;59.82;100283.00;1033611;28;622;-67
2022/04/01 01:55:40;;;;;;;;;;;;;;;12.71;60.53;100283.72;1032858;28;1753;-67
2022/04/01 01:56:31;;;;;;;;;;;;;;;12.70;59.52;100282.03;1034099;28;688;-67
2022/04/01 01:57:22;;;;;;;;;;;;;;;12.69;60.24;100287.50;1032959;28;622;-68
2022/04/01 01:58:13;;;;;;;;;;;;;;;12.69;59.74;100282.13;1032453;28;666;-67
2022/04/01 01:59:04;;;;;;;;;;;;;;;12.68;59.85;100281.28;1032883;28;690;-68
2022/04/01 01:59:55;;;;;;;;;;;;;;;12.67;59.67;100279.59;1032986;28;619;-67
2022/04/01 02:00:46;;;;;;;;;;;;;;;12.69;59.52;100293.69;1033080;28;1504;-67
2022/04/01 02:01:36;;;;;;;;;;;;;;;12.66;60.01;100288.59;1032905;28;658;-67
2022/04/01 02:02:26;;;;;;;;;;;;;;;12.65;60.06;100288.72;1034928;28;1674;-66
2022/04/01 02:03:17;;;;;;;;;;;;;;;12.66;59.59;100293.94;1034274;28;686;-66
2022/04/01 02:04:07;;;;;;;;;;;;;;;12.65;60.38;100286.88;1033235;28;1989;-66
2022/04/01 02:04:58;;;;;;;;;;;;;;;12.64;60.24;100298.56;1037075;28;727;-66
2022/04/01 02:05:50;;;;;;;;;;;;;;;12.64;59.51;100290.53;1038129;28;614;-66
2022/04/01 02:06:40;;;;;;;;;;;;;;;12.63;60.13;100291.50;1036577;28;719;-66
2022/04/01 02:07:31;;;;;;;;;;;;;;;12.63;59.38;100288.84;1038124;28;707;-66
2022/04/01 02:08:21;;;;;;;;;;;;;;;12.63;59.66;100294.19;1038229;28;696;-65
2022/04/01 02:09:11;;;;;;;;;;;;;;;12.63;59.96;100291.50;1037984;28;1541;-66
2022/04/01 02:10:02;;;;;;;;;;;;;;;12.64;60.44;100300.38;1038161;28;650;-66
2022/04/01 02:10:52;;;;;;;;;;;;;;;12.63;60.03;100285.31;1038132;28;647;-66
2022/04/01 02:11:43;;;;;;;;;;;;;;;12.62;59.75;100291.63;1038031;28;634;-66
2022/04/01 02:12:33;;;;;;;;;;;;;;;12.61;60.12;100298.78;1038203;28;682;-66
2022/04/01 02:13:24;;;;;;;;;;;;;;;12.64;59.84;100297.69;1038139;28;650;-66
2022/04/01 02:14:14;;;;;;;;;;;;;;;12.62;59.40;100295.16;1038190;28;767;-65
2022/04/01 02:15:05;;;;;;;;;;;;;;;12.61;60.27;100290.78;1037095;28;688;-65
2022/04/01 02:15:55;;;;;;;;;;;;;;;12.62;59.86;100292.47;1037793;28;1709;-65
2022/04/01 02:16:46;;;;;;;;;;;;;;;12.60;59.51;100299.78;1037080;28;658;-66
2022/04/01 02:17:36;;;;;;;;;;;;;;;12.62;59.84;100289.81;1037017;28;673;-65
2022/04/01 02:18:27;;;;;;;;;;;;;;;12.62;60.36;100288.97;1037567;28;686;-65
2022/04/01 02:19:21;;;;;;;;;;;;;;;12.61;59.63;100289.94;1037558;28;677;-66
2022/04/01 02:20:11;;;;;;;;;;;;;;;12.61;59.74;100301.47;1036838;28;602;-66
2022/04/01 02:21:07;;;;;;;;;;;;;;;12.61;59.63;100297.94;1036984;28;689;-65
2022/04/01 02:21:59;;;;;;;;;;;;;;;12.60;59.95;100291.75;1036876;28;630;-66
2022/04/01 02:22:52;;;;;;;;;;;;;;;12.60;59.32;100294.41;1036910;28;685;-66
2022/04/01 02:23:43;;;;;;;;;;;;;;;12.60;59.87;100297.09;1036706;28;1666;-66
2022/04/01 02:24:33;;;;;;;;;;;;;;;12.61;59.51;100300.63;1036920;28;665;-66
2022/04/01 02:25:23;;;;;;;;;;;;;;;12.60;59.47;100294.41;1037105;28;646;-66
2022/04/01 02:26:14;;;;;;;;;;;;;;;12.58;59.57;100307.06;1037030;28;709;-67
2022/04/01 02:27:04;;;;;;;;;;;;;;;12.57;60.06;100300.00;1036941;28;632;-66
2022/04/01 02:27:55;;;;;;;;;;;;;;;12.58;59.58;100304.38;1037452;28;618;-65
2022/04/01 02:28:45;;;;;;;;;;;;;;;12.58;60.46;100307.06;1036705;28;1682;-66
2022/04/01 02:29:36;;;;;;;;;;;;;;;12.59;60.16;100298.06;1034033;28;697;-66
2022/04/01 02:30:27;;;;;;;;;;;;;;;12.59;60.44;100313.25;1034619;28;1507;-66
2022/04/01 02:31:18;;;;;;;;;;;;;;;12.58;60.38;100311.56;1036954;28;622;-65
2022/04/01 02:32:08;;;;;;;;;;;;;;;12.58;60.10;100308.88;1036720;28;1534;-65
2022/04/01 02:32:58;;;;;;;;;;;;;;;12.59;60.17;100313.25;1038084;28;665;-65
2022/04/01 02:33:49;;;;;;;;;;;;;;;12.57;60.04;100310.72;1037950;28;684;-66
2022/04/01 02:34:40;;;;;;;;;;;;;;;12.57;60.22;100309.84;1037774;28;1820;-65
2022/04/01 02:35:30;;;;;;;;;;;;;;;12.57;60.13;100320.53;1036706;28;1713;-67
2022/04/01 02:36:21;;;;;;;;;;;;;;;12.57;59.21;100320.53;1038028;28;630;-67
2022/04/01 02:37:11;;;;;;;;;;;;;;;12.58;60.15;100315.09;1038062;28;606;-68
2022/04/01 02:38:01;;;;;;;;;;;;;;;12.56;59.52;100313.50;1034307;28;670;-68
2022/04/01 02:38:53;;;;;;;;;;;;;;;12.57;60.11;100321.41;1033063;28;646;-68
2022/04/01 02:39:44;;;;;;;;;;;;;;;12.55;60.29;100317.16;1036945;28;914;-68
2022/04/01 02:40:34;;;;;;;;;;;;;;;12.57;59.65;100320.53;1037452;28;804;-68
2022/04/01 02:41:25;;;;;;;;;;;;;;;12.55;59.77;100323.34;1038079;28;650;-68
2022/04/01 02:42:15;;;;;;;;;;;;;;;12.55;60.05;100315.31;1036922;28;610;-67
2022/04/01 02:43:06;;;;;;;;;;;;;;;12.54;59.93;100315.47;1037989;28;669;-67
2022/04/01 02:44:08;;;;;;;;;;;;;;;12.54;60.25;100321.66;1037981;28;697;-68
2022/04/01 02:44:58;;;;;;;;;;;;;;;12.54;59.81;100332.34;1036127;28;718;-68
2022/04/01 02:45:49;;;;;;;;;;;;;;;12.55;60.31;100325.16;1037740;28;1662;-68
2022/04/01 02:46:39;;;;;;;;;;;;;;;12.55;59.62;100334.03;1037432;28;657;-68
2022/04/01 02:47:30;;;;;;;;;;;;;;;12.55;60.08;100325.16;1037382;28;614;-68
2022/04/01 02:48:21;;;;;;;;;;;;;;;12.55;60.34;100328.69;1036885;28;689;-68
2022/04/01 02:49:11;;;;;;;;;;;;;;;12.54;60.60;100321.66;1037234;28;1447;-68
2022/04/01 02:50:01;;;;;;;;;;;;;;;12.54;60.38;100324.31;1038013;28;657;-68
2022/04/01 02:50:52;;;;;;;;;;;;;;;12.52;60.21;100323.63;1037824;28;1237;-66
2022/04/01 02:51:42;;;;;;;;;;;;;;;12.54;59.36;100321.66;1035541;28;651;-67
2022/04/01 02:52:33;;;;;;;;;;;;;;;12.52;59.73;100323.63;1035780;28;666;-67
2022/04/01 02:53:23;;;;;;;;;;;;;;;12.52;59.91;100321.78;1036228;28;709;-66
2022/04/01 02:54:13;;;;;;;;;;;;;;;12.52;60.07;100323.63;1031770;28;622;-66
2022/04/01 02:55:05;;;;;;;;;;;;;;;12.52;59.68;100324.47;1033842;28;618;-66
2022/04/01 02:55:55;;;;;;;;;;;;;;;12.51;59.96;100324.59;1036195;28;1691;-66
2022/04/01 02:56:46;;;;;;;;;;;;;;;12.50;59.85;100330.91;1036942;28;708;-66
2022/04/01 02:57:36;;;;;;;;;;;;;;;12.50;60.09;100338.94;1036650;28;1661;-66
2022/04/01 02:58:27;;;;;;;;;;;;;;;12.49;60.00;100318.53;1038520;28;649;-66
2022/04/01 02:59:17;;;;;;;;;;;;;;;12.49;59.47;100332.72;1038589;28;665;-66
2022/04/01 03:00:09;;;;;;;;;;;;;;;12.50;60.29;100333.59;1038474;28;1682;-66
2022/04/01 03:00:59;;;;;;;;;;;;;;;12.51;60.09;100327.25;1038565;28;622;-66
2022/04/01 03:01:50;;;;;;;;;;;;;;;12.50;59.92;100328.25;1038320;28;665;-66
2022/04/01 03:02:40;;;;;;;;;;;;;;;12.49;59.42;100329.22;1036561;28;1742;-66
2022/04/01 03:03:31;;;;;;;;;;;;;;;12.48;60.05;100328.34;1036872;28;634;-66
2022/04/01 03:04:22;;;;;;;;;;;;;;;12.49;59.18;100324.72;1038233;28;1902;-65
2022/04/01 03:05:13;;;;;;;;;;;;;;;12.50;59.35;100330.91;1036848;28;686;-65
2022/04/01 03:06:04;;;;;;;;;;;;;;;12.48;60.08;100331.03;1036651;28;689;-65
2022/04/01 03:06:54;;;;;;;;;;;;;;;12.49;59.33;100326.53;1038471;28;626;-65
2022/04/01 03:07:45;;;;;;;;;;;;;;;12.47;59.84;100337.34;1036760;28;674;-66
2022/04/01 03:08:35;;;;;;;;;;;;;;;12.47;60.05;100340.03;1038536;28;614;-66
2022/04/01 03:09:26;;;;;;;;;;;;;;;12.46;60.36;100341.00;1038548;28;626;-66
2022/04/01 03:10:17;;;;;;;;;;;;;;;12.48;59.29;100338.19;1038373;28;641;-66
2022/04/01 03:11:07;;;;;;;;;;;;;;;12.47;59.55;100341.84;1037927;28;607;-66
2022/04/01 03:11:58;;;;;;;;;;;;;;;12.46;59.46;100332.97;1038247;28;1643;-66
2022/04/01 03:12:48;;;;;;;;;;;;;;;12.45;59.31;100339.28;1038489;28;622;-65
2022/04/01 03:13:39;;;;;;;;;;;;;;;12.46;59.54;100334.78;1038414;28;677;-65
2022/04/01 03:14:29;;;;;;;;;;;;;;;12.45;58.93;100339.28;1037850;28;689;-65
2022/04/01 03:15:20;;;;;;;;;;;;;;;12.46;60.03;100342.81;1036786;28;909;-65
2022/04/01 03:16:10;;;;;;;;;;;;;;;12.46;59.86;100340.13;1038109;28;1620;-65
2022/04/01 03:17:01;;;;;;;;;;;;;;;12.45;59.26;100333.94;1036726;28;637;-65
2022/04/01 03:17:51;;;;;;;;;;;;;;;12.44;59.72;100347.44;1037265;28;773;-65
2022/04/01 03:18:42;;;;;;;;;;;;;;;12.44;59.76;100342.09;1036622;28;1646;-65
2022/04/01 03:19:33;;;;;;;;;;;;;;;12.43;60.01;100343.91;1036819;28;690;-65
2022/04/01 03:20:23;;;;;;;;;;;;;;;12.44;59.19;100352.78;1037188;28;717;-65
2022/04/01 03:21:14;;;;;;;;;;;;;;;12.42;59.04;100350.22;1036740;28;600;-67
2022/04/01 03:22:04;;;;;;;;;;;;;;;12.42;59.34;100354.72;1036572;28;650;-67
2022/04/01 03:22:55;;;;;;;;;;;;;;;12.43;59.98;100354.59;1032921;28;697;-67
2022/04/01 03:23:45;;;;;;;;;;;;;;;12.43;59.51;100356.41;1034168;28;650;-67
2022/04/01 03:24:36;;;;;;;;;;;;;;;12.43;59.48;100351.06;1038211;28;751;-67
2022/04/01 03:25:32;;;;;;;;;;;;;;;12.41;59.71;100353.00;1037327;28;705;-66
2022/04/01 03:26:23;;;;;;;;;;;;;;;12.41;59.64;100356.53;1037356;28;678;-67
2022/04/01 03:27:13;;;;;;;;;;;;;;;12.41;59.68;100361.88;1037134;28;1690;-67
2022/04/01 03:28:04;;;;;;;;;;;;;;;12.40;58.91;100370.88;1036752;28;642;-66
2022/04/01 03:28:55;;;;;;;;;;;;;;;12.40;59.73;100362.84;1036996;28;1677;-67
2022/04/01 03:29:45;;;;;;;;;;;;;;;12.42;59.04;100370.75;1034199;28;712;-66
2022/04/01 03:30:35;;;;;;;;;;;;;;;12.39;59.87;100368.31;1036654;28;1526;-66
2022/04/01 03:31:26;;;;;;;;;;;;;;;12.39;59.63;100371.84;1038318;28;688;-67
2022/04/01 03:32:16;;;;;;;;;;;;;;;12.39;59.67;100373.66;1038483;28;630;-66
2022/04/01 03:33:07;;;;;;;;;;;;;;;12.40;59.14;100372.69;1036696;28;627;-66
2022/04/01 03:33:57;;;;;;;;;;;;;;;12.39;59.19;100365.66;1036824;28;662;-66
2022/04/01 03:34:47;;;;;;;;;;;;;;;12.39;59.02;100374.50;1038348;28;816;-66
2022/04/01 03:35:38;;;;;;;;;;;;;;;12.39;59.53;100368.31;1038380;28;665;-67
2022/04/01 03:36:28;;;;;;;;;;;;;;;12.38;59.12;100372.81;1033522;28;731;-67
2022/04/01 03:37:19;;;;;;;;;;;;;;;12.38;59.83;100378.16;1033401;28;654;-67
2022/04/01 03:38:11;;;;;;;;;;;;;;;12.38;59.23;100372.81;1037388;28;664;-68
2022/04/01 03:39:01;;;;;;;;;;;;;;;12.37;59.30;100379.13;1037672;28;1657;-67
2022/04/01 03:39:52;;;;;;;;;;;;;;;12.39;58.85;100373.66;1036657;28;681;-67
2022/04/01 03:40:42;;;;;;;;;;;;;;;12.37;58.93;100372.94;1037197;28;725;-67
2022/04/01 03:41:33;;;;;;;;;;;;;;;12.37;59.02;100372.94;1036618;28;638;-67
2022/04/01 03:42:27;;;;;;;;;;;;;;;12.37;59.82;100372.94;1036715;28;728;-67
2022/04/01 03:43:20;;;;;;;;;;;;;;;12.37;59.53;100380.94;1038088;28;1639;-67
2022/04/01 03:44:11;;;;;;;;;;;;;;;12.36;58.95;100374.75;1037008;28;1894;-67
2022/04/01 03:45:03;;;;;;;;;;;;;;;12.37;59.39;100379.13;1037182;28;630;-67
2022/04/01 03:45:54;;;;;;;;;;;;;;;12.35;58.97;100381.09;1037008;28;1725;-67
2022/04/01 03:46:45;;;;;;;;;;;;;;;12.37;59.39;100380.94;1036658;28;631;-67
2022/04/01 03:47:35;;;;;;;;;;;;;;;12.35;59.50;100382.91;1038191;28;626;-67
2022/04/01 03:48:25;;;;;;;;;;;;;;;12.35;59.32;100383.78;1037951;28;614;-67
2022/04/01 03:49:16;;;;;;;;;;;;;;;12.35;59.72;100380.25;1038357;28;669;-66
2022/04/01 03:50:07;;;;;;;;;;;;;;;12.34;59.14;100373.19;1038411;28;656;-67
2022/04/01 03:50:58;;;;;;;;;;;;;;;12.36;59.74;100382.78;1038320;28;1443;-67
2022/04/01 03:51:49;;;;;;;;;;;;;;;12.34;59.34;100383.88;1036533;28;784;-67
2022/04/01 03:52:39;;;;;;;;;;;;;;;12.36;59.67;100379.28;1035981;28;619;-67
2022/04/01 03:53:30;;;;;;;;;;;;;;;12.34;58.84;100383.88;1035986;28;1757;-67
2022/04/01 03:54:20;;;;;;;;;;;;;;;12.34;59.36;100389.22;1034258;28;905;-67
2022/04/01 03:55:11;;;;;;;;;;;;;;;12.33;59.84;100383.03;1033537;28;1132;-66
2022/04/01 03:56:01;;;;;;;;;;;;;;;12.34;58.69;100389.22;1033598;28;645;-67
2022/04/01 03:56:52;;;;;;;;;;;;;;;12.34;58.66;100389.22;1033631;28;640;-67
2022/04/01 03:57:42;;;;;;;;;;;;;;;12.34;59.65;100392.75;1032477;28;607;-67
2022/04/01 03:58:33;;;;;;;;;;;;;;;12.34;59.70;100386.56;1033138;28;634;-67
2022/04/01 03:59:23;;;;;;;;;;;;;;;12.35;59.15;100389.13;1033757;28;653;-67
2022/04/01 04:00:13;;;;;;;;;;;;;;;12.35;58.74;100390.94;1034680;28;1682;-67
2022/04/01 04:01:04;;;;;;;;;;;;;;;12.35;59.35;100394.47;1033869;28;676;-67
2022/04/01 04:01:54;;;;;;;;;;;;;;;12.34;58.66;100386.56;1032179;28;686;-66
2022/04/01 04:02:46;;;;;;;;;;;;;;;12.35;59.16;100396.28;1035515;28;705;-66
2022/04/01 04:03:36;;;;;;;;;;;;;;;12.35;58.55;100388.25;1036568;28;653;-66
2022/04/01 04:04:27;;;;;;;;;;;;;;;12.36;58.79;100397.97;1037475;28;2005;-66
2022/04/01 04:05:18;;;;;;;;;;;;;;;12.36;58.10;100397.97;1037769;28;669;-66
2022/04/01 04:06:11;;;;;;;;;;;;;;;12.38;58.52;100383.50;1035688;28;1681;-65
2022/04/01 04:07:02;;;;;;;;;;;;;;;12.38;57.91;100396.00;1037644;28;693;-66
2022/04/01 04:07:52;;;;;;;;;;;;;;;12.39;58.19;100403.91;1037633;28;712;-66
2022/04/01 04:08:43;;;;;;;;;;;;;;;12.40;58.84;100392.25;1037544;28;1662;-66
2022/04/01 04:09:34;;;;;;;;;;;;;;;12.41;58.95;100395.78;1037720;28;724;-66
2022/04/01 04:10:27;;;;;;;;;;;;;;;12.42;58.77;100401.00;1036557;28;677;-66
2022/04/01 04:11:17;;;;;;;;;;;;;;;12.44;57.70;100411.56;1036514;28;689;-66
2022/04/01 04:12:09;;;;;;;;;;;;;;;12.44;57.46;100385.69;1032980;28;1833;-66
2022/04/01 04:13:00;;;;;;;;;;;;;;;12.46;56.85;100404.28;1032571;28;677;-66
2022/04/01 04:13:51;;;;;;;;;;;;;;;12.47;56.81;100397.97;1032545;28;599;-66
2022/04/01 04:14:41;;;;;;;;;;;;;;;12.49;56.65;100399.53;1032454;28;678;-66
2022/04/01 04:15:32;;;;;;;;;;;;;;;12.51;57.18;100408.28;1032573;28;740;-67
2022/04/01 04:16:23;;;;;;;;;;;;;;;12.54;56.20;100406.34;1035431;28;1539;-67
2022/04/01 04:17:17;;;;;;;;;;;;;;;12.54;56.61;100403.69;1036218;28;670;-66
2022/04/01 04:18:07;;;;;;;;;;;;;;;12.55;56.24;100408.03;1037100;28;650;-67
2022/04/01 04:18:57;;;;;;;;;;;;;;;12.59;57.05;100409.47;1037049;28;610;-66
2022/04/01 04:19:48;;;;;;;;;;;;;;;12.60;56.53;100405.84;1037133;28;642;-66
2022/04/01 04:20:38;;;;;;;;;;;;;;;12.61;56.04;100412.88;1037062;28;619;-65
2022/04/01 04:21:32;;;;;;;;;;;;;;;12.62;56.05;100412.78;1036541;28;626;-66
2022/04/01 04:22:22;;;;;;;;;;;;;;;12.63;55.72;100406.44;1037140;28;642;-66
2022/04/01 04:23:13;;;;;;;;;;;;;;;12.65;55.78;100420.53;1032765;28;652;-66
2022/04/01 04:24:03;;;;;;;;;;;;;;;12.66;56.21;100421.41;1033115;28;1674;-66
2022/04/01 04:24:54;;;;;;;;;;;;;;;12.68;55.25;100419.44;1036595;28;796;-66
2022/04/01 04:25:44;;;;;;;;;;;;;;;12.70;56.10;100413.00;1033963;28;629;-66
2022/04/01 04:26:35;;;;;;;;;;;;;;;12.70;56.14;100418.34;1032195;28;670;-66
2022/04/01 04:27:26;;;;;;;;;;;;;;;12.70;55.47;100418.34;1036412;28;1717;-66
2022/04/01 04:28:16;;;;;;;;;;;;;;;12.72;55.97;100421.72;1037724;28;736;-67
2022/04/01 04:29:07;;;;;;;;;;;;;;;12.72;55.41;100432.44;1037572;28;689;-67
2022/04/01 04:29:58;;;;;;;;;;;;;;;12.73;56.32;100423.44;1036466;28;1701;-67
2022/04/01 04:30:48;;;;;;;;;;;;;;;12.76;55.98;100420.53;1037710;28;736;-67